Time;durP1;ratioP1;P1;durP2;ratioP2;P2;SDS_P1;SDS_P2;PMS_P1;PMS_P2;Temp;Humidity;BMP_temperature;BMP_pressure;BME280_temperature;BME280_humidity;BME280_pressure;Samples;Min_cycle;Max_cycle;Signal;HPM_P1;HPM_P2
2024/04/06 00:00:21;;;;;;;;;;;;;;;;;;5003776;28;5088;-73
2024/04/06 00:02:47;;;;;;;;;;;;;;;;;;5002705;28;5312;-74
2024/04/06 00:05:12;;;;;;;;;;;;;;;;;;5009407;28;3910;-74
2024/04/06 00:07:38;;;;;;;;;;;;;;;;;;4987188;28;5154;-75
2024/04/06 00:10:03;;;;;;;;;;;;;;;;;;5008031;28;4904;-73
2024/04/06 00:12:28;;;;;;;;;;;;;;;;;;5006836;28;5170;-73
2024/04/06 00:14:54;;;;;;;;;;;;;;;;;;5006819;28;4546;-74
2024/04/06 00:17:21;;;;;;;;;;;;;;;;;;5004601;28;3550;-73
2024/04/06 00:19:46;;;;;;;;;;;;;;;;;;5006366;28;5066;-75
2024/04/06 00:22:11;;;;;;;;;;;;;;;;;;5008467;28;5094;-73
2024/04/06 00:24:37;;;;;;;;;;;;;;;;;;5004998;28;5171;-69
2024/04/06 00:27:02;;;;;;;;;;;;;;;;;;5004773;28;4695;-75
2024/04/06 00:29:27;;;;;;;;;;;;;;;;;;5008286;28;3391;-75
2024/04/06 00:31:53;;;;;;;;;;;;;;;;;;5005607;28;5062;-77
2024/04/06 00:34:18;;;;;;;;;;;;;;;;;;5003280;28;4587;-73
2024/04/06 00:36:44;;;;;;;;;;;;;;;;;;4989053;28;5256;-75
2024/04/06 00:39:09;;;;;;;;;;;;;;;;;;5006379;28;5135;-73
2024/04/06 00:41:35;;;;;;;;;;;;;;;;;;5006553;28;3678;-75
2024/04/06 00:44:00;;;;;;;;;;;;;;;;;;5007200;28;4653;-76
2024/04/06 00:46:25;;;;;;;;;;;;;;;;;;5007855;28;4636;-75
2024/04/06 00:48:52;;;;;;;;;;;;;;;;;;5010261;28;4584;-71
2024/04/06 00:51:18;;;;;;;;;;;;;;;;;;5012511;28;5104;-73
2024/04/06 00:53:43;;;;;;;;;;;;;;;;;;4990351;28;4660;-76
2024/04/06 00:56:08;;;;;;;;;;;;;;;;;;5007402;28;3305;-77
2024/04/06 00:58:34;;;;;;;;;;;;;;;;;;5007263;28;5020;-77
2024/04/06 01:00:59;;;;;;;;;;;;;;;;;;5004986;28;5148;-72
2024/04/06 01:03:26;;;;;;;;;;;;;;;;;;5007358;28;5132;-75
2024/04/06 01:05:51;;;;;;;;;;;;;;;;;;5006265;28;5442;-71
2024/04/06 01:08:16;;;;;;;;;;;;;;;;;;4993607;28;1080;-75
2024/04/06 01:10:42;;;;;;;;;;;;;;;;;;5008215;28;4569;-77
2024/04/06 01:13:07;;;;;;;;;;;;;;;;;;5006547;28;4503;-71
2024/04/06 01:15:34;;;;;;;;;;;;;;;;;;5005409;28;5142;-78
2024/04/06 01:18:00;;;;;;;;;;;;;;;;;;5006829;28;5031;-76
2024/04/06 01:20:26;;;;;;;;;;;;;;;;;;5008978;28;1196;-76
2024/04/06 01:22:51;;;;;;;;;;;;;;;;;;4990624;28;4956;-78
2024/04/06 01:25:16;;;;;;;;;;;;;;;;;;5009368;28;5002;-76
2024/04/06 01:27:44;;;;;;;;;;;;;;;;;;5005502;28;4691;-75
2024/04/06 01:30:09;;;;;;;;;;;;;;;;;;5005352;28;5097;-77
2024/04/06 01:32:34;;;;;;;;;;;;;;;;;;5008482;28;1248;-75
2024/04/06 01:35:00;;;;;;;;;;;;;;;;;;5006759;28;5023;-75
2024/04/06 01:37:25;;;;;;;;;;;;;;;;;;4987866;28;5089;-76
2024/04/06 01:39:50;;;;;;;;;;;;;;;;;;5003179;28;5074;-74
2024/04/06 01:42:16;;;;;;;;;;;;;;;;;;5003906;28;4562;-77
2024/04/06 01:44:41;;;;;;;;;;;;;;;;;;5006317;28;3611;-78
2024/04/06 01:47:07;;;;;;;;;;;;;;;;;;5004955;28;4706;-79
2024/04/06 01:49:32;;;;;;;;;;;;;;;;;;5005233;28;5266;-80
2024/04/06 01:51:57;;;;;;;;;;;;;;;;;;5004891;28;5157;-77
2024/04/06 01:54:23;;;;;;;;;;;;;;;;;;5005516;28;5046;-76
2024/04/06 01:56:50;;;;;;;;;;;;;;;;;;5009780;28;4680;-74
2024/04/06 01:59:15;;;;;;;;;;;;;;;;;;5005534;28;3418;-74
2024/04/06 02:01:43;;;;;;;;;;;;;;;;;;5002150;28;4538;-73
2024/04/06 02:04:09;;;;;;;;;;;;;;;;;;5009195;28;5081;-76
2024/04/06 02:06:34;;;;;;;;;;;;;;;;;;5007627;28;4589;-75
2024/04/06 02:08:59;;;;;;;;;;;;;;;;;;5009318;28;4609;-76
2024/04/06 02:11:25;;;;;;;;;;;;;;;;;;5009180;28;3487;-76
2024/04/06 02:13:50;;;;;;;;;;;;;;;;;;5007121;28;5016;-70
2024/04/06 02:16:16;;;;;;;;;;;;;;;;;;5006281;28;4805;-76
2024/04/06 02:18:42;;;;;;;;;;;;;;;;;;5008882;28;4665;-73
2024/04/06 02:21:08;;;;;;;;;;;;;;;;;;5005498;28;5095;-72
2024/04/06 02:23:33;;;;;;;;;;;;;;;;;;5007762;28;3641;-74
2024/04/06 02:25:59;;;;;;;;;;;;;;;;;;5005034;28;4584;-79
2024/04/06 02:28:24;;;;;;;;;;;;;;;;;;5006750;28;4658;-78
2024/04/06 02:30:49;;;;;;;;;;;;;;;;;;5007076;28;4749;-73
2024/04/06 02:33:15;;;;;;;;;;;;;;;;;;5007684;28;5064;-77
2024/04/06 02:35:40;;;;;;;;;;;;;;;;;;5008279;28;3494;-79
2024/04/06 02:38:05;;;;;;;;;;;;;;;;;;5004906;28;5120;-81
2024/04/06 02:40:31;;;;;;;;;;;;;;;;;;5002748;28;4923;-79
2024/04/06 02:42:56;;;;;;;;;;;;;;;;;;5008968;28;4530;-80
2024/04/06 02:45:21;;;;;;;;;;;;;;;;;;5004939;28;4723;-77
2024/04/06 02:47:47;;;;;;;;;;;;;;;;;;5005090;28;5178;-72
2024/04/06 02:50:12;;;;;;;;;;;;;;;;;;5008709;28;3778;-71
2024/04/06 02:52:37;;;;;;;;;;;;;;;;;;5005930;28;4578;-71
2024/04/06 02:55:04;;;;;;;;;;;;;;;;;;5009461;28;5048;-77
2024/04/06 02:57:30;;;;;;;;;;;;;;;;;;5008616;28;4507;-75
2024/04/06 02:59:55;;;;;;;;;;;;;;;;;;5005228;28;5027;-73
2024/04/06 03:02:22;;;;;;;;;;;;;;;;;;5008378;28;3395;-74
2024/04/06 03:04:48;;;;;;;;;;;;;;;;;;5007366;28;4516;-73
2024/04/06 03:07:14;;;;;;;;;;;;;;;;;;5006399;28;4715;-75
2024/04/06 03:09:39;;;;;;;;;;;;;;;;;;5004906;28;4959;-70
2024/04/06 03:12:05;;;;;;;;;;;;;;;;;;5005788;28;5285;-75
2024/04/06 03:14:31;;;;;;;;;;;;;;;;;;5005948;28;3467;-77
2024/04/06 03:16:57;;;;;;;;;;;;;;;;;;5007413;28;5169;-73
2024/04/06 03:19:22;;;;;;;;;;;;;;;;;;5005295;28;4724;-75
2024/04/06 03:21:48;;;;;;;;;;;;;;;;;;5007763;28;4569;-76
2024/04/06 03:24:13;;;;;;;;;;;;;;;;;;5003143;28;4906;-74
2024/04/06 03:26:40;;;;;;;;;;;;;;;;;;5006793;28;3543;-76
2024/04/06 03:29:05;;;;;;;;;;;;;;;;;;5003451;28;5000;-77
2024/04/06 03:31:31;;;;;;;;;;;;;;;;;;5003614;28;4529;-79
2024/04/06 03:33:56;;;;;;;;;;;;;;;;;;5003049;28;5113;-76
2024/04/06 03:36:21;;;;;;;;;;;;;;;;;;5007694;28;4828;-75
2024/04/06 03:38:47;;;;;;;;;;;;;;;;;;5006333;28;4538;-76
2024/04/06 03:41:12;;;;;;;;;;;;;;;;;;5003684;28;3474;-77
2024/04/06 03:43:38;;;;;;;;;;;;;;;;;;5004505;28;5205;-68
2024/04/06 03:46:03;;;;;;;;;;;;;;;;;;5005332;28;4613;-74
2024/04/06 03:48:30;;;;;;;;;;;;;;;;;;5006461;28;5106;-74
2024/04/06 03:50:56;;;;;;;;;;;;;;;;;;5005368;28;5184;-75
2024/04/06 03:53:32;;;;;;;;;;;;;;;;;;5008141;28;3408;-72
2024/04/06 03:55:57;;;;;;;;;;;;;;;;;;5004572;28;4973;-69
2024/04/06 03:58:22;;;;;;;;;;;;;;;;;;5007498;28;5191;-69
2024/04/06 04:00:48;;;;;;;;;;;;;;;;;;5008772;28;4516;-77
2024/04/06 04:03:14;;;;;;;;;;;;;;;;;;5003223;28;5073;-69
2024/04/06 04:05:39;;;;;;;;;;;;;;;;;;5007967;28;3499;-70
2024/04/06 04:08:05;;;;;;;;;;;;;;;;;;5005689;28;4476;-75
2024/04/06 04:10:31;;;;;;;;;;;;;;;;;;5004707;28;5040;-77
2024/04/06 04:12:57;;;;;;;;;;;;;;;;;;5006111;28;5052;-75
2024/04/06 04:15:23;;;;;;;;;;;;;;;;;;5006271;28;5104;-75
2024/04/06 04:17:48;;;;;;;;;;;;;;;;;;5006002;28;5070;-73
2024/04/06 04:20:14;;;;;;;;;;;;;;;;;;5007542;28;3491;-74
2024/04/06 04:22:39;;;;;;;;;;;;;;;;;;5007903;28;4673;-73
2024/04/06 04:25:04;;;;;;;;;;;;;;;;;;5006071;28;4984;-77
2024/04/06 04:27:32;;;;;;;;;;;;;;;;;;5005991;28;4543;-73
2024/04/06 04:29:57;;;;;;;;;;;;;;;;;;5003061;28;4585;-78
2024/04/06 04:32:23;;;;;;;;;;;;;;;;;;5007201;28;3411;-68
2024/04/06 04:34:48;;;;;;;;;;;;;;;;;;5008082;28;5031;-76
2024/04/06 04:37:14;;;;;;;;;;;;;;;;;;5005024;28;4495;-74
2024/04/06 04:39:40;;;;;;;;;;;;;;;;;;5004629;28;4695;-73
2024/04/06 04:42:05;;;;;;;;;;;;;;;;;;5001376;28;5304;-75
2024/04/06 04:44:31;;;;;;;;;;;;;;;;;;5002196;28;3539;-78
2024/04/06 04:46:56;;;;;;;;;;;;;;;;;;5004321;28;5030;-76
2024/04/06 04:49:22;;;;;;;;;;;;;;;;;;5006460;28;5053;-73
2024/04/06 04:51:47;;;;;;;;;;;;;;;;;;5001321;28;4604;-77
2024/04/06 04:54:12;;;;;;;;;;;;;;;;;;5001250;28;4527;-75
2024/04/06 04:56:38;;;;;;;;;;;;;;;;;;5004462;28;3438;-68
2024/04/06 04:59:06;;;;;;;;;;;;;;;;;;4999444;28;4920;-78
2024/04/06 05:01:31;;;;;;;;;;;;;;;;;;4996535;28;4908;-77
2024/04/06 05:03:57;;;;;;;;;;;;;;;;;;5001820;28;4717;-78
2024/04/06 05:06:22;;;;;;;;;;;;;;;;;;5007613;28;5169;-83
2024/04/06 05:08:47;;;;;;;;;;;;;;;;;;5000819;28;5055;-73
2024/04/06 05:11:13;;;;;;;;;;;;;;;;;;5003489;28;3979;-65
2024/04/06 05:13:38;;;;;;;;;;;;;;;;;;5003082;28;5228;-65
2024/04/06 05:16:05;;;;;;;;;;;;;;;;;;5005879;28;4998;-65
2024/04/06 05:18:31;;;;;;;;;;;;;;;;;;5006508;28;5176;-64
2024/04/06 05:20:57;;;;;;;;;;;;;;;;;;5009789;28;5152;-64
2024/04/06 05:23:22;;;;;;;;;;;;;;;;;;5008058;28;2408;-63
2024/04/06 05:25:48;;;;;;;;;;;;;;;;;;5005751;28;4970;-63
2024/04/06 05:28:17;;;;;;;;;;;;;;;;;;4992662;28;4560;-65
2024/04/06 05:30:43;;;;;;;;;;;;;;;;;;5005903;28;5124;-65
2024/04/06 05:33:08;;;;;;;;;;;;;;;;;;4993704;28;4927;-64
2024/04/06 05:35:34;;;;;;;;;;;;;;;;;;5009041;28;3520;-65
2024/04/06 05:37:59;;;;;;;;;;;;;;;;;;4995770;28;5011;-63
2024/04/06 05:40:24;;;;;;;;;;;;;;;;;;5001655;28;4558;-66
2024/04/06 05:42:50;;;;;;;;;;;;;;;;;;4998216;28;5186;-66
2024/04/06 05:45:15;;;;;;;;;;;;;;;;;;5004793;28;5068;-66
2024/04/06 05:47:40;;;;;;;;;;;;;;;;;;5006560;28;3187;-67
2024/04/06 05:50:07;;;;;;;;;;;;;;;;;;5005394;28;4846;-66
2024/04/06 05:52:32;;;;;;;;;;;;;;;;;;5005452;28;5087;-67
2024/04/06 05:54:59;;;;;;;;;;;;;;;;;;5004965;28;5125;-66
2024/04/06 05:57:24;;;;;;;;;;;;;;;;;;5005526;28;4951;-66
2024/04/06 05:59:50;;;;;;;;;;;;;;;;;;5005179;28;4631;-66
2024/04/06 06:02:15;;;;;;;;;;;;;;;;;;5003625;28;3521;-67
2024/04/06 06:04:40;;;;;;;;;;;;;;;;;;5006636;28;5075;-66
2024/04/06 06:07:06;;;;;;;;;;;;;;;;;;5001216;28;5037;-67
2024/04/06 06:09:31;;;;;;;;;;;;;;;;;;5004770;28;4539;-67
2024/04/06 06:11:56;;;;;;;;;;;;;;;;;;5006382;28;5158;-67
2024/04/06 06:14:22;;;;;;;;;;;;;;;;;;5005880;28;3514;-66
2024/04/06 06:16:47;;;;;;;;;;;;;;;;;;5002720;28;5101;-66
2024/04/06 06:19:12;;;;;;;;;;;;;;;;;;5002269;28;4912;-65
2024/04/06 06:21:38;;;;;;;;;;;;;;;;;;5003164;28;4539;-69
2024/04/06 06:24:03;;;;;;;;;;;;;;;;;;5003269;28;5049;-64
2024/04/06 06:26:29;;;;;;;;;;;;;;;;;;5003826;28;3529;-65
2024/04/06 06:28:54;;;;;;;;;;;;;;;;;;5007489;28;4681;-63
2024/04/06 06:31:20;;;;;;;;;;;;;;;;;;5004308;28;5016;-64
2024/04/06 06:33:45;;;;;;;;;;;;;;;;;;5005028;28;5198;-65
2024/04/06 06:36:14;;;;;;;;;;;;;;;;;;5007436;28;4580;-68
2024/04/06 06:38:39;;;;;;;;;;;;;;;;;;5001008;28;3607;-63
2024/04/06 06:41:04;;;;;;;;;;;;;;;;;;5000665;28;5284;-65
2024/04/06 06:43:30;;;;;;;;;;;;;;;;;;5005525;28;5090;-67
2024/04/06 06:45:56;;;;;;;;;;;;;;;;;;5004930;28;5216;-63
2024/04/06 06:48:21;;;;;;;;;;;;;;;;;;5007262;28;5572;-64
2024/04/06 06:50:47;;;;;;;;;;;;;;;;;;5005855;28;5386;-64
2024/04/06 06:53:12;;;;;;;;;;;;;;;;;;5006396;28;3429;-63
2024/04/06 06:55:37;;;;;;;;;;;;;;;;;;5004415;28;4555;-60
2024/04/06 06:58:03;;;;;;;;;;;;;;;;;;5006022;28;5070;-64
2024/04/06 07:00:29;;;;;;;;;;;;;;;;;;5006814;28;4594;-62
2024/04/06 07:02:55;;;;;;;;;;;;;;;;;;5007090;28;5122;-65
2024/04/06 07:05:20;;;;;;;;;;;;;;;;;;5009013;28;3489;-65
2024/04/06 07:07:52;;;;;;;;;;;;;;;;;;4991553;28;4759;-65
2024/04/06 07:10:18;;;;;;;;;;;;;;;;;;5008258;28;4570;-66
2024/04/06 07:12:43;;;;;;;;;;;;;;;;;;5009843;28;4953;-64
2024/04/06 07:15:08;;;;;;;;;;;;;;;;;;5010213;28;5028;-65
2024/04/06 07:17:34;;;;;;;;;;;;;;;;;;5010320;28;1125;-75
2024/04/06 07:19:59;;;;;;;;;;;;;;;;;;4985068;28;5073;-67
2024/04/06 07:22:25;;;;;;;;;;;;;;;;;;5006265;28;5146;-64
2024/04/06 07:24:50;;;;;;;;;;;;;;;;;;5007796;28;4562;-66
2024/04/06 07:27:15;;;;;;;;;;;;;;;;;;5007874;28;5245;-64
2024/04/06 07:29:41;;;;;;;;;;;;;;;;;;5007563;28;3907;-65
2024/04/06 07:32:06;;;;;;;;;;;;;;;;;;5009293;28;4476;-60
2024/04/06 07:34:32;;;;;;;;;;;;;;;;;;5011752;28;4973;-60
2024/04/06 07:36:57;;;;;;;;;;;;;;;;;;5006306;28;5136;-59
2024/04/06 07:39:22;;;;;;;;;;;;;;;;;;5005353;28;4541;-69
2024/04/06 07:41:48;;;;;;;;;;;;;;;;;;5006134;28;4711;-59
2024/04/06 07:44:13;;;;;;;;;;;;;;;;;;5008867;28;3427;-60
2024/04/06 07:46:38;;;;;;;;;;;;;;;;;;5008298;28;5122;-59
2024/04/06 07:49:04;;;;;;;;;;;;;;;;;;5008429;28;4537;-60
2024/04/06 07:51:29;;;;;;;;;;;;;;;;;;5008161;28;5263;-59
2024/04/06 07:53:54;;;;;;;;;;;;;;;;;;5005722;28;5206;-59
2024/04/06 07:56:20;;;;;;;;;;;;;;;;;;4992494;28;3603;-58
2024/04/06 07:58:45;;;;;;;;;;;;;;;;;;5007027;28;4615;-60
2024/04/06 08:01:10;;;;;;;;;;;;;;;;;;5005577;28;4845;-60
2024/04/06 08:03:36;;;;;;;;;;;;;;;;;;5008118;28;4731;-60
2024/04/06 08:06:01;;;;;;;;;;;;;;;;;;5007846;28;4510;-59
2024/04/06 08:08:27;;;;;;;;;;;;;;;;;;5005475;28;3696;-60
2024/04/06 08:10:52;;;;;;;;;;;;;;;;;;4983752;28;5013;-59
2024/04/06 08:13:18;;;;;;;;;;;;;;;;;;5008555;28;5054;-58
2024/04/06 08:15:44;;;;;;;;;;;;;;;;;;5003416;28;5101;-58
2024/04/06 08:18:09;;;;;;;;;;;;;;;;;;5001727;28;5054;-59
2024/04/06 08:20:35;;;;;;;;;;;;;;;;;;5008517;28;2494;-59
2024/04/06 08:23:00;;;;;;;;;;;;;;;;;;5004394;28;5187;-59
2024/04/06 08:25:26;;;;;;;;;;;;;;;;;;5007875;28;5024;-57
2024/04/06 08:27:51;;;;;;;;;;;;;;;;;;5002061;28;5072;-59
2024/04/06 08:30:16;;;;;;;;;;;;;;;;;;5006446;28;5065;-58
2024/04/06 08:32:43;;;;;;;;;;;;;;;;;;5009144;28;2558;-58
2024/04/06 08:35:14;;;;;;;;;;;;;;;;;;5007973;28;5115;-59
2024/04/06 08:37:39;;;;;;;;;;;;;;;;;;4985822;28;4698;-59
2024/04/06 08:40:05;;;;;;;;;;;;;;;;;;5006824;28;5070;-58
2024/04/06 08:42:31;;;;;;;;;;;;;;;;;;5006685;28;5142;-58
2024/04/06 08:44:56;;;;;;;;;;;;;;;;;;5004225;28;5064;-60
2024/04/06 08:47:22;;;;;;;;;;;;;;;;;;4984450;28;3470;-59
2024/04/06 08:49:47;;;;;;;;;;;;;;;;;;5007652;28;5071;-59
2024/04/06 08:52:13;;;;;;;;;;;;;;;;;;5006236;28;4981;-59
2024/04/06 08:54:39;;;;;;;;;;;;;;;;;;5000033;28;5053;-62
2024/04/06 08:57:04;;;;;;;;;;;;;;;;;;5001220;28;5154;-65
2024/04/06 08:59:30;;;;;;;;;;;;;;;;;;5002047;28;3218;-65
2024/04/06 09:01:55;;;;;;;;;;;;;;;;;;5004961;28;4939;-64
2024/04/06 09:04:21;;;;;;;;;;;;;;;;;;4986852;28;5095;-63
2024/04/06 09:06:47;;;;;;;;;;;;;;;;;;5003004;28;4555;-63
2024/04/06 09:09:12;;;;;;;;;;;;;;;;;;5004588;28;4921;-65
2024/04/06 09:11:38;;;;;;;;;;;;;;;;;;5006202;28;1514;-65
2024/04/06 09:14:06;;;;;;;;;;;;;;;;;;4999401;28;4547;-66
2024/04/06 09:16:32;;;;;;;;;;;;;;;;;;5004641;28;4497;-67
2024/04/06 09:18:58;;;;;;;;;;;;;;;;;;5004906;28;5123;-67
2024/04/06 09:21:23;;;;;;;;;;;;;;;;;;5006913;28;5372;-67
2024/04/06 09:23:49;;;;;;;;;;;;;;;;;;5002322;28;5126;-68
2024/04/06 09:26:18;;;;;;;;;;;;;;;;;;5004898;28;3443;-65
2024/04/06 09:28:43;;;;;;;;;;;;;;;;;;5003685;28;4575;-64
2024/04/06 09:31:11;;;;;;;;;;;;;;;;;;4989328;28;5235;-66
2024/04/06 09:33:36;;;;;;;;;;;;;;;;;;4988830;28;5220;-68
2024/04/06 09:36:02;;;;;;;;;;;;;;;;;;4996737;28;4602;-61
2024/04/06 09:38:27;;;;;;;;;;;;;;;;;;4983272;28;3566;-61
2024/04/06 09:40:52;;;;;;;;;;;;;;;;;;4998366;28;5200;-60
2024/04/06 09:43:18;;;;;;;;;;;;;;;;;;5008794;28;5203;-59
2024/04/06 09:45:43;;;;;;;;;;;;;;;;;;5002031;28;5159;-61
2024/04/06 09:48:09;;;;;;;;;;;;;;;;;;5007593;28;5155;-59
2024/04/06 09:50:36;;;;;;;;;;;;;;;;;;5004277;28;3273;-59
2024/04/06 09:53:02;;;;;;;;;;;;;;;;;;5000797;28;4539;-58
2024/04/06 09:55:28;;;;;;;;;;;;;;;;;;5004361;28;5146;-59
2024/04/06 09:57:54;;;;;;;;;;;;;;;;;;4997011;28;5230;-60
2024/04/06 10:00:20;;;;;;;;;;;;;;;;;;5002661;28;5179;-60
2024/04/06 10:02:45;;;;;;;;;;;;;;;;;;4988747;28;5052;-59
2024/04/06 10:05:11;;;;;;;;;;;;;;;;;;5003478;28;3801;-66
2024/04/06 10:07:36;;;;;;;;;;;;;;;;;;4998068;28;4643;-67
2024/04/06 10:10:02;;;;;;;;;;;;;;;;;;5004552;28;5079;-66
2024/04/06 10:12:37;;;;;;;;;;;;;;;;;;5001585;28;4979;-66
2024/04/06 10:15:08;;;;;;;;;;;;;;;;;;5003672;28;5249;-66
2024/04/06 10:17:40;;;;;;;;;;;;;;;;;;5005933;28;3435;-67
2024/04/06 10:20:07;;;;;;;;;;;;;;;;;;5002730;28;4867;-67
2024/04/06 10:22:42;;;;;;;;;;;;;;;;;;4986815;28;5132;-66
2024/04/06 10:25:07;;;;;;;;;;;;;;;;;;5004360;28;5170;-58
2024/04/06 10:27:37;;;;;;;;;;;;;;;;;;5005270;28;5103;-59
2024/04/06 10:30:02;;;;;;;;;;;;;;;;;;5007774;28;5139;-58
2024/04/06 10:32:27;;;;;;;;;;;;;;;;;;5008676;28;3435;-55
2024/04/06 10:34:59;;;;;;;;;;;;;;;;;;5009317;28;4666;-58
2024/04/06 10:37:24;;;;;;;;;;;;;;;;;;5007168;28;4919;-58
2024/04/06 10:39:50;;;;;;;;;;;;;;;;;;4991142;28;5088;-58
2024/04/06 10:42:15;;;;;;;;;;;;;;;;;;5009929;28;5060;-58
2024/04/06 10:44:40;;;;;;;;;;;;;;;;;;5006687;28;3353;-56
2024/04/06 10:47:09;;;;;;;;;;;;;;;;;;5007895;28;5052;-56
2024/04/06 10:49:34;;;;;;;;;;;;;;;;;;5008133;28;4712;-57
2024/04/06 10:52:00;;;;;;;;;;;;;;;;;;5011128;28;5476;-58
2024/04/06 10:54:25;;;;;;;;;;;;;;;;;;5008903;28;4963;-55
2024/04/06 10:56:50;;;;;;;;;;;;;;;;;;5006368;28;4744;-56
2024/04/06 10:59:16;;;;;;;;;;;;;;;;;;5005783;28;3517;-58
2024/04/06 11:01:41;;;;;;;;;;;;;;;;;;4999769;28;5301;-58
2024/04/06 11:04:10;;;;;;;;;;;;;;;;;;5002315;28;5126;-58
2024/04/06 11:06:36;;;;;;;;;;;;;;;;;;5007821;28;4569;-58
2024/04/06 11:09:02;;;;;;;;;;;;;;;;;;5004198;28;5251;-58
2024/04/06 11:11:28;;;;;;;;;;;;;;;;;;5003389;28;4014;-59
2024/04/06 11:13:57;;;;;;;;;;;;;;;;;;5006616;28;4646;-59
2024/04/06 11:16:22;;;;;;;;;;;;;;;;;;5009193;28;4530;-59
2024/04/06 11:18:48;;;;;;;;;;;;;;;;;;5007293;28;5100;-58
2024/04/06 11:21:14;;;;;;;;;;;;;;;;;;5012021;28;5963;-60
2024/04/06 11:23:40;;;;;;;;;;;;;;;;;;5007431;28;3600;-58
2024/04/06 11:26:05;;;;;;;;;;;;;;;;;;5008468;28;4974;-59
2024/04/06 11:28:31;;;;;;;;;;;;;;;;;;5007320;28;5320;-67
2024/04/06 11:30:58;;;;;;;;;;;;;;;;;;5006433;28;4739;-60
2024/04/06 11:33:23;;;;;;;;;;;;;;;;;;5003405;28;5059;-62
2024/04/06 11:35:49;;;;;;;;;;;;;;;;;;5006843;28;6071;-59
2024/04/06 11:38:14;;;;;;;;;;;;;;;;;;5006828;28;3687;-66
2024/04/06 11:40:46;;;;;;;;;;;;;;;;;;5007340;28;5526;-68
2024/04/06 11:43:12;;;;;;;;;;;;;;;;;;5012628;28;4534;-63
2024/04/06 11:45:37;;;;;;;;;;;;;;;;;;5008392;28;5317;-65
2024/04/06 11:48:03;;;;;;;;;;;;;;;;;;5009012;28;5062;-65
2024/04/06 11:50:28;;;;;;;;;;;;;;;;;;5005303;28;1146;-62
2024/04/06 11:52:54;;;;;;;;;;;;;;;;;;5005457;28;5042;-65
2024/04/06 11:55:19;;;;;;;;;;;;;;;;;;5006076;28;4564;-64
2024/04/06 11:57:44;;;;;;;;;;;;;;;;;;5006695;28;4688;-64
2024/04/06 12:00:11;;;;;;;;;;;;;;;;;;5010453;28;4981;-66
2024/04/06 12:02:36;;;;;;;;;;;;;;;;;;5004932;28;3732;-62
2024/04/06 12:05:02;;;;;;;;;;;;;;;;;;5006219;28;5322;-62
2024/04/06 12:07:27;;;;;;;;;;;;;;;;;;5005873;28;4898;-67
2024/04/06 12:09:52;;;;;;;;;;;;;;;;;;5003270;28;4585;-61
2024/04/06 12:12:18;;;;;;;;;;;;;;;;;;5006028;28;5190;-70
2024/04/06 12:14:43;;;;;;;;;;;;;;;;;;5005132;28;5260;-63
2024/04/06 12:17:14;;;;;;;;;;;;;;;;;;5005766;28;3608;-62
2024/04/06 12:19:40;;;;;;;;;;;;;;;;;;5006815;28;4627;-64
2024/04/06 12:22:05;;;;;;;;;;;;;;;;;;5006933;28;5289;-63
2024/04/06 12:24:31;;;;;;;;;;;;;;;;;;5004539;28;5119;-65
2024/04/06 12:26:57;;;;;;;;;;;;;;;;;;5005853;28;5125;-65
2024/04/06 12:29:22;;;;;;;;;;;;;;;;;;5004941;28;3432;-62
2024/04/06 12:31:48;;;;;;;;;;;;;;;;;;5007656;28;5100;-62
2024/04/06 12:34:13;;;;;;;;;;;;;;;;;;5006721;28;4532;-64
2024/04/06 12:36:38;;;;;;;;;;;;;;;;;;5006712;28;4982;-66
2024/04/06 12:39:09;;;;;;;;;;;;;;;;;;5001935;28;5119;-68
2024/04/06 12:41:34;;;;;;;;;;;;;;;;;;4998838;28;3416;-64
2024/04/06 12:43:59;;;;;;;;;;;;;;;;;;5006068;28;5129;-65
2024/04/06 12:46:25;;;;;;;;;;;;;;;;;;5007745;28;5174;-63
2024/04/06 12:48:50;;;;;;;;;;;;;;;;;;5006566;28;5346;-64
2024/04/06 12:51:15;;;;;;;;;;;;;;;;;;5008979;28;4972;-72
2024/04/06 12:53:41;;;;;;;;;;;;;;;;;;5006507;28;4317;-65
2024/04/06 12:56:07;;;;;;;;;;;;;;;;;;5002719;28;4596;-62
2024/04/06 12:58:32;;;;;;;;;;;;;;;;;;5004529;28;5060;-62
2024/04/06 13:00:57;;;;;;;;;;;;;;;;;;5010969;28;5085;-62
2024/04/06 13:03:23;;;;;;;;;;;;;;;;;;5003524;28;5134;-67
2024/04/06 13:05:51;;;;;;;;;;;;;;;;;;5005731;28;5986;-62
2024/04/06 13:08:17;;;;;;;;;;;;;;;;;;5004269;28;3779;-62
2024/04/06 13:10:42;;;;;;;;;;;;;;;;;;5004008;28;5272;-62
2024/04/06 13:13:07;;;;;;;;;;;;;;;;;;5005960;28;4601;-62
2024/04/06 13:15:33;;;;;;;;;;;;;;;;;;5005535;28;5062;-63
2024/04/06 13:17:58;;;;;;;;;;;;;;;;;;5005944;28;5086;-59
2024/04/06 13:20:26;;;;;;;;;;;;;;;;;;5004381;28;4049;-68
2024/04/06 13:22:51;;;;;;;;;;;;;;;;;;5002351;28;4498;-58
2024/04/06 13:25:18;;;;;;;;;;;;;;;;;;5007756;28;4890;-58
2024/04/06 13:27:44;;;;;;;;;;;;;;;;;;5003988;28;5142;-57
2024/04/06 13:30:09;;;;;;;;;;;;;;;;;;5004681;28;5079;-58
2024/04/06 13:32:35;;;;;;;;;;;;;;;;;;5005742;28;3516;-58
2024/04/06 13:35:00;;;;;;;;;;;;;;;;;;5001982;28;5305;-57
2024/04/06 13:37:27;;;;;;;;;;;;;;;;;;5004270;28;5456;-57
2024/04/06 13:39:53;;;;;;;;;;;;;;;;;;4984329;28;5069;-60
2024/04/06 13:42:18;;;;;;;;;;;;;;;;;;5005069;28;5288;-59
2024/04/06 13:44:44;;;;;;;;;;;;;;;;;;5007558;28;5062;-56
2024/04/06 13:47:10;;;;;;;;;;;;;;;;;;5004628;28;3684;-54
2024/04/06 13:49:35;;;;;;;;;;;;;;;;;;5003370;28;5102;-53
2024/04/06 13:52:01;;;;;;;;;;;;;;;;;;5000202;28;5113;-53
2024/04/06 13:54:26;;;;;;;;;;;;;;;;;;4997407;28;5204;-52
2024/04/06 13:56:52;;;;;;;;;;;;;;;;;;5003501;28;4598;-52
2024/04/06 13:59:18;;;;;;;;;;;;;;;;;;5007192;28;3406;-52
2024/04/06 14:01:44;;;;;;;;;;;;;;;;;;4989041;28;4545;-52
2024/04/06 14:04:09;;;;;;;;;;;;;;;;;;5006899;28;5035;-50
2024/04/06 14:06:34;;;;;;;;;;;;;;;;;;4994965;28;4560;-50
2024/04/06 14:09:01;;;;;;;;;;;;;;;;;;5009761;28;4800;-49
2024/04/06 14:11:30;;;;;;;;;;;;;;;;;;5010465;28;1090;-53
2024/04/06 14:13:59;;;;;;;;;;;;;;;;;;5009707;28;5100;-49
2024/04/06 14:16:24;;;;;;;;;;;;;;;;;;5010267;28;4529;-49
2024/04/06 14:18:49;;;;;;;;;;;;;;;;;;4993046;28;4634;-48
2024/04/06 14:21:15;;;;;;;;;;;;;;;;;;5010224;28;5756;-50
2024/04/06 14:23:40;;;;;;;;;;;;;;;;;;5009485;28;3526;-51
2024/04/06 14:26:06;;;;;;;;;;;;;;;;;;5010980;28;5119;-49
2024/04/06 14:28:31;;;;;;;;;;;;;;;;;;5009247;28;5329;-51
2024/04/06 14:30:57;;;;;;;;;;;;;;;;;;4996754;28;5274;-48
2024/04/06 14:33:22;;;;;;;;;;;;;;;;;;5010696;28;5304;-52
2024/04/06 14:35:47;;;;;;;;;;;;;;;;;;5010244;28;5984;-49
2024/04/06 14:38:13;;;;;;;;;;;;;;;;;;5010181;28;3419;-50
2024/04/06 14:40:38;;;;;;;;;;;;;;;;;;4993299;28;5125;-52
2024/04/06 14:43:04;;;;;;;;;;;;;;;;;;5009870;28;5189;-50
2024/04/06 14:45:29;;;;;;;;;;;;;;;;;;5009893;28;4928;-53
2024/04/06 14:47:54;;;;;;;;;;;;;;;;;;5008568;28;5294;-53
2024/04/06 14:50:20;;;;;;;;;;;;;;;;;;4994669;28;1137;-49
2024/04/06 14:52:45;;;;;;;;;;;;;;;;;;5010228;28;4493;-51
2024/04/06 14:55:10;;;;;;;;;;;;;;;;;;5009301;28;5155;-49
2024/04/06 14:57:36;;;;;;;;;;;;;;;;;;5015848;28;4778;-51
2024/04/06 15:00:02;;;;;;;;;;;;;;;;;;5010995;28;4565;-49
2024/04/06 15:02:27;;;;;;;;;;;;;;;;;;5009551;28;3364;-48
2024/04/06 15:04:52;;;;;;;;;;;;;;;;;;5011164;28;4513;-51
2024/04/06 15:07:18;;;;;;;;;;;;;;;;;;5010202;28;5148;-49
2024/04/06 15:09:43;;;;;;;;;;;;;;;;;;5007851;28;4682;-49
2024/04/06 15:12:08;;;;;;;;;;;;;;;;;;5009081;28;4580;-49
2024/04/06 15:14:34;;;;;;;;;;;;;;;;;;5010745;28;1177;-50
2024/04/06 15:16:59;;;;;;;;;;;;;;;;;;5009740;28;5028;-51
2024/04/06 15:19:25;;;;;;;;;;;;;;;;;;5008869;28;4563;-51
2024/04/06 15:21:52;;;;;;;;;;;;;;;;;;4991325;28;5715;-49
2024/04/06 15:24:17;;;;;;;;;;;;;;;;;;5008604;28;4929;-48
2024/04/06 15:26:42;;;;;;;;;;;;;;;;;;5009043;28;1181;-50
2024/04/06 15:29:08;;;;;;;;;;;;;;;;;;5009221;28;4606;-51
2024/04/06 15:31:33;;;;;;;;;;;;;;;;;;5009227;28;5082;-52
2024/04/06 15:33:58;;;;;;;;;;;;;;;;;;5010568;28;4918;-49
2024/04/06 15:36:24;;;;;;;;;;;;;;;;;;5008738;28;5173;-49
2024/04/06 15:38:52;;;;;;;;;;;;;;;;;;5006510;28;5022;-51
2024/04/06 15:41:18;;;;;;;;;;;;;;;;;;5007771;28;1205;-53
2024/04/06 15:43:43;;;;;;;;;;;;;;;;;;5008704;28;4532;-54
2024/04/06 15:46:08;;;;;;;;;;;;;;;;;;5010579;28;5228;-53
2024/04/06 15:48:34;;;;;;;;;;;;;;;;;;5009574;28;4716;-53
2024/04/06 15:50:59;;;;;;;;;;;;;;;;;;5009701;28;5121;-55
2024/04/06 15:53:24;;;;;;;;;;;;;;;;;;5006881;28;3456;-53
2024/04/06 15:55:51;;;;;;;;;;;;;;;;;;5003519;28;5181;-54
2024/04/06 15:58:16;;;;;;;;;;;;;;;;;;5009274;28;4659;-54
2024/04/06 16:00:42;;;;;;;;;;;;;;;;;;4996390;28;4954;-54
2024/04/06 16:03:07;;;;;;;;;;;;;;;;;;5011849;28;5173;-53
2024/04/06 16:05:33;;;;;;;;;;;;;;;;;;5008300;28;1196;-51
2024/04/06 16:07:58;;;;;;;;;;;;;;;;;;5006410;28;4996;-51
2024/04/06 16:10:23;;;;;;;;;;;;;;;;;;5008613;28;4673;-53
2024/04/06 16:12:49;;;;;;;;;;;;;;;;;;5009438;28;5033;-52
2024/04/06 16:15:14;;;;;;;;;;;;;;;;;;5009126;28;5074;-52
2024/04/06 16:17:39;;;;;;;;;;;;;;;;;;5015817;28;1177;-54
2024/04/06 16:20:06;;;;;;;;;;;;;;;;;;5006750;28;5088;-53
2024/04/06 16:22:32;;;;;;;;;;;;;;;;;;5006389;28;4587;-53
2024/04/06 16:24:57;;;;;;;;;;;;;;;;;;4986273;28;5214;-53
2024/04/06 16:27:24;;;;;;;;;;;;;;;;;;5007670;28;5163;-53
2024/04/06 16:29:49;;;;;;;;;;;;;;;;;;5006905;28;5014;-54
2024/04/06 16:32:14;;;;;;;;;;;;;;;;;;5008353;28;3451;-53
2024/04/06 16:34:40;;;;;;;;;;;;;;;;;;5006990;28;4494;-54
2024/04/06 16:37:05;;;;;;;;;;;;;;;;;;5006288;28;5037;-53
2024/04/06 16:39:31;;;;;;;;;;;;;;;;;;5004507;28;5360;-54
2024/04/06 16:41:56;;;;;;;;;;;;;;;;;;5006724;28;4522;-52
2024/04/06 16:44:22;;;;;;;;;;;;;;;;;;5007600;28;1098;-50
2024/04/06 16:46:48;;;;;;;;;;;;;;;;;;5007842;28;4525;-52
2024/04/06 16:49:13;;;;;;;;;;;;;;;;;;5007227;28;5065;-51
2024/04/06 16:51:39;;;;;;;;;;;;;;;;;;5007309;28;4510;-52